createdAt,value
2022-12-18T00:00:32.597Z,9.50
2022-12-18T00:01:32.696Z,10.40
2022-12-18T00:02:32.701Z,10.30
2022-12-18T00:03:32.685Z,8.40
2022-12-18T00:04:32.545Z,9.20
2022-12-18T00:05:32.561Z,9.70
2022-12-18T00:06:32.538Z,9.40
2022-12-18T00:07:32.580Z,10.00
2022-12-18T00:08:32.502Z,9.00
2022-12-18T00:09:40.019Z,8.80
2022-12-18T00:10:33.544Z,9.80
2022-12-18T00:11:32.528Z,9.30
2022-12-18T00:12:32.591Z,8.90
2022-12-18T00:13:32.455Z,8.50
2022-12-18T00:14:32.440Z,10.60
2022-12-18T00:15:32.473Z,9.60
2022-12-18T00:16:32.468Z,9.60
2022-12-18T00:17:32.438Z,8.40
2022-12-18T00:18:32.407Z,9.60
2022-12-18T00:19:32.402Z,9.30
2022-12-18T00:20:32.378Z,8.20
2022-12-18T00:21:32.387Z,9.10
2022-12-18T00:22:32.398Z,8.60
2022-12-18T00:23:32.368Z,9.80
2022-12-18T00:24:32.389Z,9.10
2022-12-18T00:25:32.330Z,8.60
2022-12-18T00:26:32.330Z,9.80
2022-12-18T00:27:32.363Z,9.70
2022-12-18T00:28:32.317Z,8.90
2022-12-18T00:29:32.326Z,9.80
2022-12-18T00:30:32.295Z,10.30
2022-12-18T00:31:32.377Z,8.90
2022-12-18T00:32:32.296Z,9.80
2022-12-18T00:33:32.249Z,9.70
2022-12-18T00:34:32.260Z,8.70
2022-12-18T00:35:32.239Z,9.10
2022-12-18T00:36:32.333Z,10.20
2022-12-18T00:37:32.230Z,9.40
2022-12-18T00:38:32.205Z,8.20
2022-12-18T00:39:32.192Z,8.10
2022-12-18T00:40:32.179Z,8.00
2022-12-18T00:41:32.178Z,8.80
2022-12-18T00:42:32.179Z,8.50
2022-12-18T00:43:32.150Z,9.10
2022-12-18T00:44:32.146Z,8.50
2022-12-18T00:45:32.188Z,9.20
2022-12-18T00:46:32.122Z,9.20
2022-12-18T00:47:32.120Z,9.00
2022-12-18T00:48:32.242Z,8.60
2022-12-18T00:49:32.112Z,8.30
2022-12-18T00:50:32.077Z,8.50
2022-12-18T00:51:32.080Z,9.40
2022-12-18T00:52:32.119Z,8.50
2022-12-18T00:53:32.055Z,8.40
2022-12-18T00:54:32.043Z,9.50
2022-12-18T00:55:32.024Z,9.20
2022-12-18T00:56:32.020Z,8.30
2022-12-18T00:57:32.025Z,9.70
2022-12-18T00:58:32.011Z,10.30
2022-12-18T00:59:32.045Z,9.90
2022-12-18T01:00:32.045Z,9.10
2022-12-18T01:01:32.078Z,9.30
2022-12-18T01:02:32.042Z,9.30
2022-12-18T01:03:31.996Z,9.10
2022-12-18T01:04:31.951Z,9.20
2022-12-18T01:05:31.925Z,9.40
2022-12-18T01:06:31.926Z,9.50
2022-12-18T01:07:31.930Z,9.50
2022-12-18T01:08:31.921Z,9.40
2022-12-18T01:09:31.878Z,9.00
2022-12-18T01:10:31.878Z,10.40
2022-12-18T01:11:31.931Z,9.30
2022-12-18T01:12:31.869Z,9.00
2022-12-18T01:13:31.851Z,9.00
2022-12-18T01:14:31.839Z,9.30
2022-12-18T01:15:31.821Z,9.40
2022-12-18T01:16:31.876Z,9.10
2022-12-18T01:17:31.809Z,10.20
2022-12-18T01:18:31.787Z,8.20
2022-12-18T01:19:31.779Z,9.10
2022-12-18T01:20:31.774Z,9.30
2022-12-18T01:21:31.754Z,9.30
2022-12-18T01:22:31.761Z,9.60
2022-12-18T01:23:31.774Z,8.70
2022-12-18T01:24:31.773Z,9.50
2022-12-18T01:25:31.714Z,8.90
2022-12-18T01:26:31.709Z,8.60
2022-12-18T01:27:31.714Z,9.80
2022-12-18T01:28:31.689Z,9.10
2022-12-18T01:29:31.679Z,8.90
2022-12-18T01:30:31.671Z,9.20
2022-12-18T01:31:31.701Z,8.40
2022-12-18T01:32:31.656Z,8.80
2022-12-18T01:33:31.626Z,8.60
2022-12-18T01:34:31.632Z,9.00
2022-12-18T01:35:31.631Z,9.80
2022-12-18T01:36:31.625Z,8.80
2022-12-18T01:37:31.627Z,8.90
2022-12-18T01:38:31.581Z,9.70
2022-12-18T01:39:31.574Z,8.90
2022-12-18T01:40:31.562Z,9.60
2022-12-18T01:41:31.542Z,8.60
2022-12-18T01:42:31.573Z,9.00
2022-12-18T01:43:31.549Z,9.60
2022-12-18T01:44:31.623Z,9.60
2022-12-18T01:45:31.517Z,8.90
2022-12-18T01:46:31.535Z,8.50
2022-12-18T01:47:31.549Z,9.50
2022-12-18T01:48:31.496Z,9.50
2022-12-18T01:49:31.460Z,7.60
2022-12-18T01:50:31.448Z,9.50
2022-12-18T01:51:31.441Z,9.10
2022-12-18T01:52:31.471Z,9.10
2022-12-18T01:53:31.459Z,9.80
2022-12-18T01:54:31.412Z,8.10
2022-12-18T01:55:31.402Z,9.10
2022-12-18T01:56:31.391Z,8.20
2022-12-18T01:57:31.440Z,9.40
2022-12-18T01:58:31.368Z,8.70
2022-12-18T01:59:31.365Z,8.60
2022-12-18T02:00:31.350Z,8.60
2022-12-18T02:01:31.452Z,8.30
2022-12-18T02:02:31.440Z,9.30
2022-12-18T02:03:31.369Z,8.80
2022-12-18T02:04:31.313Z,9.40
2022-12-18T02:05:31.299Z,8.10
2022-12-18T02:06:31.292Z,10.10
2022-12-18T02:07:31.304Z,9.80
2022-12-18T02:08:31.284Z,8.90
2022-12-18T02:09:31.286Z,10.40
2022-12-18T02:10:31.268Z,8.10
2022-12-18T02:11:31.236Z,8.80
2022-12-18T02:12:31.266Z,9.30
2022-12-18T02:13:31.323Z,8.70
2022-12-18T02:14:31.209Z,9.70
2022-12-18T02:15:31.188Z,8.80
2022-12-18T02:16:31.242Z,9.00
2022-12-18T02:17:31.209Z,9.00
2022-12-18T02:18:31.173Z,9.50
2022-12-18T02:19:31.153Z,9.30
2022-12-18T02:20:31.142Z,9.20
2022-12-18T02:21:31.141Z,9.10
2022-12-18T02:22:31.131Z,10.40
2022-12-18T02:23:31.105Z,9.70
2022-12-18T02:24:31.145Z,10.10
2022-12-18T02:25:31.120Z,9.30
2022-12-18T02:26:31.078Z,10.00
2022-12-18T02:27:31.082Z,10.60
2022-12-18T02:28:31.082Z,9.50
2022-12-18T02:29:31.164Z,9.30
2022-12-18T02:30:31.116Z,10.30
2022-12-18T02:31:31.031Z,9.20
2022-12-18T02:32:31.037Z,8.60
2022-12-18T02:33:31.009Z,7.40
2022-12-18T02:34:30.993Z,7.70
2022-12-18T02:35:30.988Z,8.70
2022-12-18T02:36:30.984Z,9.80
2022-12-18T02:37:30.977Z,9.50
2022-12-18T02:38:30.960Z,9.10
2022-12-18T02:39:30.948Z,9.50
2022-12-18T02:40:30.947Z,9.90
2022-12-18T02:41:30.925Z,10.40
2022-12-18T02:42:30.936Z,10.30
2022-12-18T02:43:30.937Z,9.10
2022-12-18T02:44:30.893Z,9.50
2022-12-18T02:45:31.050Z,9.00
2022-12-18T02:46:30.867Z,8.70
2022-12-18T02:47:30.881Z,8.80
2022-12-18T02:48:30.865Z,10.30
2022-12-18T02:49:30.840Z,9.80
2022-12-18T02:50:30.835Z,9.40
2022-12-18T02:51:30.849Z,8.80
2022-12-18T02:52:30.865Z,10.20
2022-12-18T02:53:30.808Z,9.00
2022-12-18T02:54:30.796Z,9.00
2022-12-18T02:55:30.775Z,9.30
2022-12-18T02:56:30.778Z,9.00
2022-12-18T02:57:30.768Z,9.90
2022-12-18T02:58:30.775Z,9.60
2022-12-18T02:59:30.765Z,8.80
2022-12-18T03:00:30.734Z,9.00
2022-12-18T03:01:30.942Z,9.20
2022-12-18T03:02:30.896Z,8.30
2022-12-18T03:03:30.775Z,9.30
2022-12-18T03:04:30.719Z,9.70
2022-12-18T03:05:30.686Z,10.10
2022-12-18T03:06:30.729Z,9.90
2022-12-18T03:07:30.736Z,9.80
2022-12-18T03:08:30.634Z,9.20
2022-12-18T03:09:30.629Z,9.20
2022-12-18T03:10:30.664Z,9.30
2022-12-18T03:11:30.633Z,8.90
2022-12-18T03:12:30.617Z,9.10
2022-12-18T03:13:30.613Z,9.70
2022-12-18T03:14:30.652Z,9.70
2022-12-18T03:15:30.574Z,9.80
2022-12-18T03:16:30.606Z,8.90
2022-12-18T03:17:30.731Z,9.50
2022-12-18T03:18:30.532Z,10.40
2022-12-18T03:19:30.562Z,9.60
2022-12-18T03:20:30.516Z,10.60
2022-12-18T03:21:30.533Z,9.50
2022-12-18T03:22:30.521Z,9.10
2022-12-18T03:23:30.475Z,10.60
2022-12-18T03:24:30.479Z,8.90
2022-12-18T03:25:30.466Z,9.90
2022-12-18T03:26:30.492Z,9.00
2022-12-18T03:27:30.469Z,9.90
2022-12-18T03:28:30.429Z,10.30
2022-12-18T03:29:30.421Z,9.50
2022-12-18T03:30:30.499Z,9.20
2022-12-18T03:31:30.486Z,9.40
2022-12-18T03:32:30.401Z,9.00
2022-12-18T03:33:30.551Z,9.40
2022-12-18T03:34:30.375Z,10.50
2022-12-18T03:35:30.357Z,10.90
2022-12-18T03:36:30.350Z,9.20
2022-12-18T03:37:30.353Z,10.80
2022-12-18T03:38:30.384Z,8.70
2022-12-18T03:39:30.324Z,9.50
2022-12-18T03:40:30.307Z,9.30
2022-12-18T03:41:30.392Z,9.70
2022-12-18T03:42:30.315Z,9.70
2022-12-18T03:43:30.277Z,9.30
2022-12-18T03:44:30.277Z,8.90
2022-12-18T03:45:30.251Z,10.10
2022-12-18T03:46:30.339Z,9.50
2022-12-18T03:47:30.253Z,10.50
2022-12-18T03:48:30.506Z,8.70
2022-12-18T03:49:30.402Z,9.20
2022-12-18T03:50:30.202Z,9.40
2022-12-18T03:51:30.202Z,9.60
2022-12-18T03:52:30.196Z,9.80
2022-12-18T03:53:30.178Z,9.50
2022-12-18T03:54:30.177Z,9.60
2022-12-18T03:55:30.171Z,9.50
2022-12-18T03:56:30.140Z,10.10
2022-12-18T03:57:30.315Z,10.70
2022-12-18T03:58:30.405Z,9.60
2022-12-18T03:59:30.141Z,9.10
2022-12-18T04:00:30.105Z,10.00
2022-12-18T04:01:30.187Z,11.20
2022-12-18T04:02:30.310Z,9.60
2022-12-18T04:03:30.139Z,8.70
2022-12-18T04:04:30.294Z,9.80
2022-12-18T04:05:30.161Z,8.90
2022-12-18T04:06:30.072Z,9.60
2022-12-18T04:07:30.066Z,9.90
2022-12-18T04:08:30.063Z,10.00
2022-12-18T04:09:30.026Z,9.30
2022-12-18T04:10:30.031Z,9.60
2022-12-18T04:11:29.993Z,8.80
2022-12-18T04:12:30.104Z,9.10
2022-12-18T04:13:29.963Z,9.10
2022-12-18T04:14:29.960Z,9.50
2022-12-18T04:15:29.997Z,11.10
2022-12-18T04:16:29.959Z,9.10
2022-12-18T04:17:29.941Z,9.60
2022-12-18T04:18:29.921Z,10.20
2022-12-18T04:19:29.917Z,8.80
2022-12-18T04:20:29.897Z,9.30
2022-12-18T04:21:29.983Z,8.80
2022-12-18T04:22:29.905Z,10.10
2022-12-18T04:23:29.866Z,9.20
2022-12-18T04:24:29.907Z,9.40
2022-12-18T04:25:29.844Z,8.00
2022-12-18T04:26:29.824Z,8.40
2022-12-18T04:27:29.829Z,9.50
2022-12-18T04:28:29.841Z,7.80
2022-12-18T04:29:29.804Z,8.80
2022-12-18T04:30:29.784Z,7.20
2022-12-18T04:31:29.846Z,8.90
2022-12-18T04:32:29.805Z,8.80
2022-12-18T04:33:29.760Z,8.10
2022-12-18T04:34:29.761Z,8.80
2022-12-18T04:35:29.761Z,7.70
2022-12-18T04:36:29.771Z,8.40
2022-12-18T04:37:29.829Z,7.90
2022-12-18T04:38:29.702Z,7.10
2022-12-18T04:39:29.711Z,7.80
2022-12-18T04:40:29.723Z,8.70
2022-12-18T04:41:29.687Z,7.40
2022-12-18T04:42:29.689Z,8.20
2022-12-18T04:43:29.727Z,7.30
2022-12-18T04:44:29.658Z,7.10
2022-12-18T04:45:29.691Z,7.40
2022-12-18T04:46:29.696Z,8.80
2022-12-18T04:47:29.635Z,8.10
2022-12-18T04:48:29.602Z,8.20
2022-12-18T04:49:29.600Z,9.50
2022-12-18T04:50:29.583Z,8.10
2022-12-18T04:51:29.572Z,8.10
2022-12-18T04:52:29.577Z,9.40
2022-12-18T04:53:29.667Z,8.70
2022-12-18T04:54:29.557Z,8.20
2022-12-18T04:55:29.539Z,9.00
2022-12-18T04:56:29.511Z,7.70
2022-12-18T04:57:29.569Z,8.90
2022-12-18T04:58:29.659Z,8.60
2022-12-18T04:59:29.495Z,9.20
2022-12-18T05:00:29.497Z,9.00
2022-12-18T05:01:34.355Z,9.20
2022-12-18T05:02:30.664Z,9.60
2022-12-18T05:03:29.538Z,8.00
2022-12-18T05:04:29.457Z,8.60
2022-12-18T05:05:29.432Z,8.90
2022-12-18T05:06:29.444Z,7.70
2022-12-18T05:07:29.436Z,6.80
2022-12-18T05:08:29.467Z,6.90
2022-12-18T05:09:29.497Z,7.90
2022-12-18T05:10:33.463Z,7.50
2022-12-18T05:11:30.431Z,7.50
2022-12-18T05:12:29.382Z,7.40
2022-12-18T05:13:29.346Z,8.40
2022-12-18T05:14:29.344Z,7.70
2022-12-18T05:15:29.346Z,8.40
2022-12-18T05:16:29.465Z,8.90
2022-12-18T05:17:29.330Z,8.60
2022-12-18T05:18:29.318Z,8.40
2022-12-18T05:19:29.304Z,9.20
2022-12-18T05:20:29.306Z,9.30
2022-12-18T05:21:29.373Z,8.50
2022-12-18T05:22:29.268Z,9.30
2022-12-18T05:23:29.253Z,9.10
2022-12-18T05:24:29.245Z,7.20
2022-12-18T05:25:29.351Z,10.20
2022-12-18T05:26:29.221Z,9.30
2022-12-18T05:27:29.408Z,7.90
2022-12-18T05:28:29.211Z,7.80
2022-12-18T05:29:29.232Z,7.90
2022-12-18T05:30:29.189Z,7.40
2022-12-18T05:31:29.238Z,7.00
2022-12-18T05:32:29.189Z,7.70
2022-12-18T05:33:29.151Z,6.30
2022-12-18T05:34:29.159Z,5.80
2022-12-18T05:35:29.133Z,6.70
2022-12-18T05:36:29.176Z,5.30
2022-12-18T05:37:29.168Z,6.50
2022-12-18T05:38:29.100Z,7.30
2022-12-18T05:39:29.159Z,6.60
2022-12-18T05:40:29.215Z,7.80
2022-12-18T05:41:29.181Z,7.00
2022-12-18T05:42:29.285Z,8.50
2022-12-18T05:43:29.053Z,8.60
2022-12-18T05:44:29.055Z,8.60
2022-12-18T05:45:29.042Z,8.60
2022-12-18T05:46:29.078Z,8.30
2022-12-18T05:47:29.041Z,7.80
2022-12-18T05:48:29.022Z,7.10
2022-12-18T05:49:29.027Z,6.40
2022-12-18T05:50:28.995Z,7.50
2022-12-18T05:51:28.975Z,7.10
2022-12-18T05:52:28.979Z,6.60
2022-12-18T05:53:28.942Z,7.00
2022-12-18T05:54:28.934Z,6.00
2022-12-18T05:55:28.951Z,6.40
2022-12-18T05:56:28.939Z,5.10
2022-12-18T05:57:29.044Z,5.10
2022-12-18T05:58:28.905Z,5.30
2022-12-18T05:59:28.950Z,5.00
2022-12-18T06:00:28.985Z,5.40
2022-12-18T06:01:28.923Z,5.10
2022-12-18T06:02:29.170Z,5.40
2022-12-18T06:03:33.735Z,6.70
2022-12-18T06:04:29.870Z,5.40
2022-12-18T06:05:28.838Z,5.40
2022-12-18T06:06:28.823Z,5.20
2022-12-18T06:07:28.818Z,6.60
2022-12-18T06:08:28.802Z,6.60
2022-12-18T06:09:28.793Z,6.20
2022-12-18T06:10:28.868Z,5.40
2022-12-18T06:11:28.796Z,5.80
2022-12-18T06:12:28.784Z,6.10
2022-12-18T06:13:28.857Z,6.80
2022-12-18T06:14:28.758Z,5.40
2022-12-18T06:15:28.766Z,7.00
2022-12-18T06:16:28.790Z,6.70
2022-12-18T06:17:28.731Z,6.50
2022-12-18T06:18:28.715Z,6.60
2022-12-18T06:19:28.682Z,7.50
2022-12-18T06:20:33.223Z,7.30
2022-12-18T06:21:29.748Z,6.60
2022-12-18T06:22:28.689Z,6.90
2022-12-18T06:23:28.672Z,5.50
2022-12-18T06:24:28.647Z,7.50
2022-12-18T06:25:28.623Z,6.50
2022-12-18T06:26:28.880Z,7.20
2022-12-18T06:27:28.638Z,7.30
2022-12-18T06:28:28.613Z,6.40
2022-12-18T06:29:28.701Z,8.00
2022-12-18T06:30:28.569Z,7.90
2022-12-18T06:31:28.612Z,6.80
2022-12-18T06:32:28.574Z,7.50
2022-12-18T06:33:28.543Z,8.10
2022-12-18T06:34:28.550Z,8.40
2022-12-18T06:35:28.529Z,7.40
2022-12-18T06:36:28.518Z,7.60
2022-12-18T06:37:28.558Z,8.50
2022-12-18T06:38:28.496Z,7.60
2022-12-18T06:39:28.482Z,7.80
2022-12-18T06:40:28.497Z,7.90
2022-12-18T06:41:28.468Z,7.40
2022-12-18T06:42:28.628Z,8.10
2022-12-18T06:43:28.451Z,8.20
2022-12-18T06:44:28.450Z,7.10
2022-12-18T06:45:28.570Z,6.40
2022-12-18T06:46:28.444Z,7.30
2022-12-18T06:47:28.569Z,7.60
2022-12-18T06:48:28.407Z,8.40
2022-12-18T06:49:30.581Z,8.40
2022-12-18T06:50:28.364Z,7.90
2022-12-18T06:51:28.391Z,8.30
2022-12-18T06:52:28.356Z,8.80
2022-12-18T06:53:28.380Z,7.90
2022-12-18T06:54:28.333Z,7.70
2022-12-18T06:55:28.354Z,7.50
2022-12-18T06:56:28.310Z,8.20
2022-12-18T06:57:28.369Z,6.80
2022-12-18T06:58:28.294Z,6.90
2022-12-18T06:59:28.304Z,7.80
2022-12-18T07:00:28.274Z,7.40
2022-12-18T07:01:28.528Z,6.60
2022-12-18T07:02:28.408Z,6.90
2022-12-18T07:03:28.242Z,8.20
2022-12-18T07:04:28.230Z,7.60
2022-12-18T07:05:28.222Z,7.10
2022-12-18T07:06:28.300Z,7.60
2022-12-18T07:07:28.260Z,8.40
2022-12-18T07:08:28.224Z,8.20
2022-12-18T07:09:28.205Z,8.20
2022-12-18T07:10:28.309Z,7.60
2022-12-18T07:11:28.184Z,8.90
2022-12-18T07:12:28.218Z,7.70
2022-12-18T07:13:28.149Z,6.70
2022-12-18T07:14:28.139Z,7.40
2022-12-18T07:15:28.113Z,7.40
2022-12-18T07:16:28.162Z,7.50
2022-12-18T07:17:28.229Z,9.50
2022-12-18T07:18:28.091Z,11.10
2022-12-18T07:19:28.102Z,10.00
2022-12-18T07:20:28.065Z,8.40
2022-12-18T07:21:28.066Z,8.20
2022-12-18T07:22:28.068Z,6.90
2022-12-18T07:23:28.049Z,8.20
2022-12-18T07:24:28.086Z,7.90
2022-12-18T07:25:28.026Z,6.30
2022-12-18T07:26:28.114Z,7.00
2022-12-18T07:27:28.033Z,5.50
2022-12-18T07:28:27.986Z,7.00
2022-12-18T07:29:28.022Z,6.10
2022-12-18T07:30:27.966Z,5.70
2022-12-18T07:31:28.039Z,5.60
2022-12-18T07:32:28.001Z,6.20
2022-12-18T07:33:28.050Z,6.20
2022-12-18T07:34:27.939Z,6.10
2022-12-18T07:35:27.950Z,8.40
2022-12-18T07:36:27.947Z,7.10
2022-12-18T07:37:27.935Z,8.00
2022-12-18T07:38:27.882Z,7.50
2022-12-18T07:39:27.888Z,8.30
2022-12-18T07:40:27.882Z,9.30
2022-12-18T07:41:27.853Z,8.60
2022-12-18T07:42:27.913Z,8.70
2022-12-18T07:43:27.865Z,9.30
2022-12-18T07:44:27.820Z,8.30
2022-12-18T07:45:27.916Z,8.60
2022-12-18T07:46:27.810Z,8.40
2022-12-18T07:47:27.817Z,8.60
2022-12-18T07:48:27.793Z,7.50
2022-12-18T07:49:27.894Z,6.00
2022-12-18T07:50:27.767Z,6.50
2022-12-18T07:51:27.784Z,5.80
2022-12-18T07:52:27.774Z,5.40
2022-12-18T07:53:27.746Z,5.00
2022-12-18T07:54:27.746Z,5.70
2022-12-18T07:55:27.748Z,6.40
2022-12-18T07:56:29.508Z,6.40
2022-12-18T07:57:49.478Z,10.50
2022-12-18T07:58:28.699Z,7.60
2022-12-18T07:59:27.666Z,7.10
2022-12-18T08:00:27.660Z,7.70
2022-12-18T08:01:27.871Z,7.10
2022-12-18T08:02:27.770Z,5.60
2022-12-18T08:03:27.642Z,7.10
2022-12-18T08:04:27.678Z,5.00
2022-12-18T08:05:27.733Z,6.10
2022-12-18T08:06:27.596Z,6.90
2022-12-18T08:07:27.618Z,7.20
2022-12-18T08:08:27.597Z,6.60
2022-12-18T08:09:27.577Z,6.70
2022-12-18T08:10:27.612Z,7.50
2022-12-18T08:11:27.613Z,6.80
2022-12-18T08:12:27.622Z,6.50
2022-12-18T08:13:27.543Z,6.80
2022-12-18T08:14:27.534Z,7.40
2022-12-18T08:15:27.544Z,7.30
2022-12-18T08:16:27.571Z,7.50
2022-12-18T08:17:27.549Z,8.70
2022-12-18T08:18:27.484Z,7.20
2022-12-18T08:19:27.505Z,8.20
2022-12-18T08:20:27.532Z,6.50
2022-12-18T08:21:27.574Z,8.10
2022-12-18T08:22:27.471Z,7.90
2022-12-18T08:23:28.877Z,9.10
2022-12-18T08:24:27.441Z,8.60
2022-12-18T08:25:27.410Z,8.60
2022-12-18T08:26:27.425Z,8.80
2022-12-18T08:27:29.883Z,8.20
2022-12-18T08:28:27.416Z,8.50
2022-12-18T08:29:27.391Z,9.10
2022-12-18T08:30:27.452Z,7.60
2022-12-18T08:31:27.468Z,8.70
2022-12-18T08:32:27.441Z,9.00
2022-12-18T08:33:27.329Z,9.50
2022-12-18T08:34:27.353Z,9.90
2022-12-18T08:35:30.486Z,10.60
2022-12-18T08:36:28.307Z,9.00
2022-12-18T08:37:27.396Z,10.10
2022-12-18T08:38:27.302Z,9.30
2022-12-18T08:39:27.484Z,8.60
2022-12-18T08:40:27.256Z,7.70
2022-12-18T08:41:27.255Z,9.00
2022-12-18T08:42:27.271Z,8.00
2022-12-18T08:43:27.227Z,8.20
2022-12-18T08:44:27.215Z,7.80
2022-12-18T08:45:27.240Z,8.70
2022-12-18T08:46:27.262Z,7.70
2022-12-18T08:47:27.209Z,9.10
2022-12-18T08:48:27.173Z,7.40
2022-12-18T08:49:27.184Z,7.90
2022-12-18T08:50:27.153Z,8.30
2022-12-18T08:51:27.179Z,7.90
2022-12-18T08:52:27.228Z,8.80
2022-12-18T08:53:30.337Z,8.90
2022-12-18T08:54:28.293Z,9.10
2022-12-18T08:55:27.109Z,8.50
2022-12-18T08:56:27.100Z,9.60
2022-12-18T08:57:27.087Z,8.00
2022-12-18T08:58:27.072Z,8.30
2022-12-18T08:59:27.057Z,8.80
2022-12-18T09:00:27.227Z,9.50
2022-12-18T09:01:27.148Z,10.80
2022-12-18T09:02:27.261Z,10.30
2022-12-18T09:03:27.092Z,9.90
2022-12-18T09:04:27.014Z,9.60
2022-12-18T09:05:26.994Z,10.30
2022-12-18T09:06:26.988Z,9.10
2022-12-18T09:07:27.100Z,10.20
2022-12-18T09:08:26.972Z,9.00
2022-12-18T09:09:27.072Z,9.10
2022-12-18T09:10:26.966Z,10.70
2022-12-18T09:11:26.928Z,11.60
2022-12-18T09:12:26.953Z,12.00
2022-12-18T09:13:26.933Z,10.80
2022-12-18T09:14:26.939Z,12.40
2022-12-18T09:15:26.918Z,11.70
2022-12-18T09:16:31.649Z,10.90
2022-12-18T09:17:27.892Z,9.40
2022-12-18T09:18:26.898Z,10.40
2022-12-18T09:19:26.873Z,10.40
2022-12-18T09:20:26.852Z,10.30
2022-12-18T09:21:26.829Z,10.50
2022-12-18T09:22:26.922Z,10.40
2022-12-18T09:23:26.852Z,10.10
2022-12-18T09:24:26.825Z,10.40
2022-12-18T09:25:26.907Z,11.00
2022-12-18T09:26:26.802Z,9.20
2022-12-18T09:27:26.797Z,10.20
2022-12-18T09:28:26.778Z,10.10
2022-12-18T09:29:26.743Z,11.40
2022-12-18T09:30:26.772Z,11.50
2022-12-18T09:31:26.885Z,10.90
2022-12-18T09:32:26.761Z,10.70
2022-12-18T09:33:26.714Z,10.80
2022-12-18T09:34:26.730Z,9.60
2022-12-18T09:35:26.721Z,10.40
2022-12-18T09:36:26.696Z,9.80
2022-12-18T09:37:26.694Z,8.30
2022-12-18T09:38:26.652Z,9.70
2022-12-18T09:39:26.714Z,10.20
2022-12-18T09:40:26.649Z,10.70
2022-12-18T09:41:26.748Z,9.90
2022-12-18T09:42:26.671Z,9.90
2022-12-18T09:43:26.611Z,9.70
2022-12-18T09:44:26.652Z,9.20
2022-12-18T09:45:26.589Z,11.40
2022-12-18T09:46:26.677Z,10.50
2022-12-18T09:47:26.586Z,9.80
2022-12-18T09:48:26.701Z,9.10
2022-12-18T09:49:26.569Z,10.30
2022-12-18T09:50:26.537Z,11.20
2022-12-18T09:51:26.522Z,10.00
2022-12-18T09:52:26.547Z,9.20
2022-12-18T09:53:26.498Z,10.00
2022-12-18T09:54:26.515Z,9.80
2022-12-18T09:55:26.507Z,9.50
2022-12-18T09:56:26.466Z,9.60
2022-12-18T09:57:26.613Z,9.70
2022-12-18T09:58:26.460Z,10.80
2022-12-18T09:59:26.494Z,10.40
2022-12-18T10:00:26.483Z,10.00
2022-12-18T10:01:31.539Z,9.60
2022-12-18T10:02:27.673Z,9.80
2022-12-18T10:03:26.479Z,10.00
2022-12-18T10:04:26.481Z,9.70
2022-12-18T10:05:26.442Z,10.40
2022-12-18T10:06:26.362Z,10.70
2022-12-18T10:07:26.372Z,9.50
2022-12-18T10:08:26.359Z,9.50
2022-12-18T10:09:26.350Z,9.40
2022-12-18T10:10:26.349Z,9.80
2022-12-18T10:11:26.342Z,10.30
2022-12-18T10:12:26.321Z,9.80
2022-12-18T10:13:32.244Z,10.50
2022-12-18T10:14:27.398Z,10.40
2022-12-18T10:15:26.256Z,10.00
2022-12-18T10:16:26.343Z,10.30
2022-12-18T10:17:26.307Z,10.90
2022-12-18T10:18:26.257Z,10.80
2022-12-18T10:19:26.219Z,11.00
2022-12-18T10:20:26.237Z,10.90
2022-12-18T10:21:26.223Z,11.30
2022-12-18T10:22:26.234Z,12.00
2022-12-18T10:23:26.191Z,13.30
2022-12-18T10:24:26.161Z,14.00
2022-12-18T10:25:26.153Z,14.50
2022-12-18T10:26:26.164Z,16.50
2022-12-18T10:27:26.195Z,15.10
2022-12-18T10:28:26.124Z,11.80
2022-12-18T10:29:26.112Z,11.30
2022-12-18T10:30:26.222Z,11.90
2022-12-18T10:31:26.235Z,11.30
2022-12-18T10:32:26.143Z,12.80
2022-12-18T10:33:26.205Z,13.00
2022-12-18T10:34:26.081Z,12.70
2022-12-18T10:35:26.072Z,13.10
2022-12-18T10:36:26.098Z,14.40
2022-12-18T10:37:26.071Z,13.40
2022-12-18T10:38:26.050Z,11.60
2022-12-18T10:39:26.024Z,12.00
2022-12-18T12:44:15.336Z,14.40
2022-12-18T12:45:15.192Z,12.20
2022-12-18T14:09:03.051Z,11.10
2022-12-18T14:11:03.814Z,12.80
2022-12-18T14:12:02.818Z,12.80
2022-12-18T14:13:03.313Z,13.70
2022-12-18T14:14:02.785Z,13.50
2022-12-18T14:15:02.788Z,12.30
2022-12-18T14:16:03.950Z,14.00
2022-12-18T14:17:03.922Z,12.00
2022-12-18T14:18:02.901Z,12.60
2022-12-18T14:19:05.222Z,13.20
2022-12-18T14:20:03.724Z,12.40
2022-12-18T14:21:02.706Z,13.40
2022-12-18T14:22:02.729Z,12.80
2022-12-18T14:23:02.694Z,10.90
2022-12-18T14:24:02.773Z,12.60
2022-12-18T14:25:02.810Z,12.40
2022-12-18T14:26:06.044Z,11.60
2022-12-18T14:27:02.902Z,11.70
2022-12-18T14:28:02.639Z,11.10
2022-12-18T14:29:02.624Z,10.80
2022-12-18T14:30:02.610Z,10.80
2022-12-18T14:31:02.669Z,11.90
2022-12-18T14:32:02.616Z,10.70
2022-12-18T14:33:02.601Z,11.90
2022-12-18T14:34:02.681Z,12.30
2022-12-18T14:35:02.897Z,11.70
2022-12-18T14:36:03.214Z,13.50
2022-12-18T14:37:02.564Z,14.60
2022-12-18T14:38:02.540Z,12.90
2022-12-18T14:39:02.518Z,13.30
2022-12-18T14:40:08.977Z,12.80
2022-12-18T14:41:03.634Z,13.50
2022-12-18T14:42:02.564Z,13.00
2022-12-18T14:43:02.485Z,12.30
2022-12-18T14:44:02.486Z,11.80
2022-12-18T14:45:14.099Z,12.60
2022-12-18T14:46:03.597Z,11.20
2022-12-18T14:47:02.473Z,12.70
2022-12-18T14:48:02.480Z,12.90
2022-12-18T14:49:02.484Z,14.60
2022-12-18T14:50:02.449Z,13.80
2022-12-18T14:51:02.422Z,14.20
2022-12-18T14:52:02.422Z,13.50
2022-12-18T14:53:02.379Z,14.10
2022-12-18T14:54:02.426Z,19.00
2022-12-18T14:55:02.415Z,15.80
2022-12-18T14:56:02.364Z,16.00
2022-12-18T14:57:02.469Z,13.90
2022-12-18T14:58:02.326Z,14.30
2022-12-18T14:59:02.423Z,16.50
2022-12-18T15:00:02.310Z,14.20
2022-12-18T15:01:02.337Z,13.50
2022-12-18T15:02:02.553Z,13.80
2022-12-18T15:03:02.481Z,13.80
2022-12-18T15:04:02.275Z,12.90
2022-12-18T15:05:02.330Z,10.00
2022-12-18T15:06:02.251Z,12.40
2022-12-18T15:07:02.225Z,11.40
2022-12-18T15:08:02.268Z,11.90
2022-12-18T15:09:02.306Z,13.30
2022-12-18T15:10:02.230Z,12.30
2022-12-18T15:11:02.207Z,13.30
2022-12-18T15:12:02.217Z,12.90
2022-12-18T15:13:02.285Z,13.70
2022-12-18T15:14:02.235Z,13.90
2022-12-18T15:15:02.203Z,13.00
2022-12-18T15:16:02.327Z,13.50
2022-12-18T15:17:02.252Z,12.80
2022-12-18T15:18:02.213Z,13.00
2022-12-18T15:19:02.197Z,14.10
2022-12-18T15:20:02.104Z,13.50
2022-12-18T15:21:02.146Z,12.00
2022-12-18T15:22:06.374Z,10.70
2022-12-18T15:23:02.075Z,11.80
2022-12-18T15:24:02.060Z,12.20
2022-12-18T15:25:02.070Z,11.60
2022-12-18T15:26:02.037Z,12.00
2022-12-18T15:27:02.190Z,10.70
2022-12-18T15:28:02.027Z,12.10
2022-12-18T15:29:02.112Z,13.90
2022-12-18T15:30:02.159Z,12.80
2022-12-18T15:31:02.007Z,12.30
2022-12-18T15:32:01.989Z,12.80
2022-12-18T15:33:01.958Z,13.40
2022-12-18T15:34:01.983Z,14.90
2022-12-18T15:35:01.970Z,15.30
2022-12-18T15:36:01.947Z,15.00
2022-12-18T15:37:02.050Z,14.70
2022-12-18T15:38:01.924Z,15.50
2022-12-18T15:39:05.351Z,15.90
2022-12-18T15:40:02.011Z,15.20
2022-12-18T15:41:01.924Z,14.60
2022-12-18T15:42:01.889Z,12.70
2022-12-18T15:43:01.867Z,14.00
2022-12-18T15:44:01.865Z,11.10
2022-12-18T15:45:07.824Z,12.00
2022-12-18T15:46:03.054Z,12.50
2022-12-18T15:47:01.856Z,11.50
2022-12-18T15:48:01.882Z,11.90
2022-12-18T15:49:02.993Z,12.40
2022-12-18T15:50:02.122Z,12.70
2022-12-18T15:51:01.792Z,12.40
2022-12-18T15:52:01.781Z,13.00
2022-12-18T15:53:01.761Z,13.10
2022-12-18T15:54:01.775Z,11.90
2022-12-18T15:55:01.730Z,13.30
2022-12-18T15:56:01.752Z,12.90
2022-12-18T15:57:01.772Z,12.70
2022-12-18T15:58:01.764Z,12.20
2022-12-18T15:59:01.725Z,12.30
2022-12-18T16:00:01.769Z,12.40
2022-12-18T16:01:01.777Z,13.00
2022-12-18T16:02:01.923Z,15.20
2022-12-18T16:03:01.845Z,14.00
2022-12-18T16:04:01.709Z,12.90
2022-12-18T16:05:01.634Z,11.20
2022-12-18T16:06:01.654Z,11.90
2022-12-18T16:07:19.234Z,12.10
2022-12-18T16:08:02.666Z,11.70
2022-12-18T16:09:01.586Z,12.00
2022-12-18T16:10:02.324Z,13.90
2022-12-18T16:11:01.567Z,13.20
2022-12-18T16:12:01.668Z,12.70
2022-12-18T16:13:01.574Z,13.10
2022-12-18T16:14:01.538Z,12.40
2022-12-18T16:15:01.566Z,12.30
2022-12-18T16:16:01.591Z,14.90
2022-12-18T16:17:01.536Z,14.10
2022-12-18T16:18:01.605Z,18.90
2022-12-18T16:19:01.496Z,21.50
2022-12-18T16:20:01.470Z,18.20
2022-12-18T16:21:01.457Z,19.60
2022-12-18T16:22:01.566Z,26.40
2022-12-18T16:23:01.494Z,24.70
2022-12-18T16:24:01.427Z,19.50
2022-12-18T16:25:01.422Z,22.10
2022-12-18T16:26:01.428Z,15.90
2022-12-18T16:27:01.483Z,15.70
2022-12-18T16:28:01.387Z,18.10
2022-12-18T16:29:01.375Z,15.50
2022-12-18T16:30:01.373Z,17.90
2022-12-18T16:31:01.389Z,13.70
2022-12-18T16:32:01.447Z,13.60
2022-12-18T16:33:01.347Z,13.30
2022-12-18T16:34:01.437Z,11.50
2022-12-18T16:35:01.387Z,12.40
2022-12-18T16:36:01.306Z,11.30
2022-12-18T16:37:05.199Z,10.50